Time;durP1;ratioP1;P1;durP2;ratioP2;P2;SDS_P1;SDS_P2;PMS_P1;PMS_P2;Temp;Humidity;BMP_temperature;BMP_pressure;BME280_temperature;BME280_humidity;BME280_pressure;Samples;Min_cycle;Max_cycle;Signal;HPM_P1;HPM_P2
2021/11/24 00:01:41;;;;;;;31.20;15.52;;;;;;;12.21;61.97;102172.44;5004022;28;98890;-79
2021/11/24 00:04:07;;;;;;;30.15;14.77;;;;;;;12.02;62.23;102171.94;5004178;28;98815;-79
2021/11/24 00:06:34;;;;;;;27.20;14.32;;;;;;;11.91;62.49;102180.09;5004759;28;97945;-78
2021/11/24 00:09:01;;;;;;;33.63;16.33;;;;;;;12.21;62.43;102183.03;5004727;28;97581;-78
2021/11/24 00:11:28;;;;;;;32.67;15.55;;;;;;;12.53;61.02;102179.78;5001256;28;98743;-78
2021/11/24 00:13:56;;;;;;;28.15;15.23;;;;;;;12.35;61.57;102170.41;4997197;28;99050;-80
2021/11/24 00:16:23;;;;;;;31.00;14.95;;;;;;;12.43;60.47;102168.47;5009593;28;97563;-80
2021/11/24 00:18:50;;;;;;;34.30;15.82;;;;;;;12.35;61.90;102173.91;5014740;28;96905;-79
2021/11/24 00:21:18;;;;;;;29.25;15.02;;;;;;;12.18;61.95;102169.88;5012419;28;98039;-79
2021/11/24 00:23:45;;;;;;;31.30;15.48;;;;;;;12.50;61.27;102169.22;5011188;28;101620;-79
2021/11/24 00:26:11;;;;;;;26.45;15.30;;;;;;;12.70;60.21;102167.00;5013772;28;96823;-79
2021/11/24 00:28:38;;;;;;;30.38;15.88;;;;;;;12.20;61.63;102163.66;5022638;28;97327;-78
2021/11/24 00:31:06;;;;;;;31.30;14.95;;;;;;;12.67;60.49;102162.63;5014173;28;99291;-79
2021/11/24 00:33:33;;;;;;;30.92;15.32;;;;;;;12.58;60.51;102161.97;5012890;28;101297;-78
2021/11/24 00:36:00;;;;;;;30.00;15.15;;;;;;;12.29;61.68;102160.78;5011305;28;97602;-79
2021/11/24 00:38:27;;;;;;;32.13;15.55;;;;;;;12.54;60.82;102150.56;5008265;28;96807;-79
2021/11/24 00:40:55;;;;;;;33.80;16.05;;;;;;;12.01;62.06;102164.03;5013180;28;101606;-78
2021/11/24 00:43:22;;;;;;;35.08;15.05;;;;;;;12.19;62.57;102159.25;5013762;28;97926;-78
2021/11/24 00:45:48;;;;;;;30.38;15.38;;;;;;;12.50;60.89;102162.13;5012996;28;97420;-79
2021/11/24 00:48:16;;;;;;;30.67;15.88;;;;;;;12.56;60.73;102166.44;5013952;28;97237;-79
2021/11/24 00:50:43;;;;;;;27.98;14.65;;;;;;;12.56;60.37;102163.78;5011980;28;98993;-79
2021/11/24 00:53:09;;;;;;;30.38;15.60;;;;;;;12.40;61.05;102162.38;5011594;28;100045;-79
2021/11/24 00:55:36;;;;;;;26.05;15.25;;;;;;;12.68;60.15;102163.50;5013627;28;96843;-79
2021/11/24 00:58:02;;;;;;;28.63;15.25;;;;;;;12.55;60.35;102164.69;5013797;28;97276;-79
2021/11/24 01:00:29;;;;;;;33.28;16.10;;;;;;;12.26;60.63;102155.56;5011635;28;98814;-80
2021/11/24 01:02:55;;;;;;;32.72;15.63;;;;;;;12.43;60.68;102162.28;5020719;28;99066;-79
2021/11/24 01:05:23;;;;;;;27.35;15.30;;;;;;;12.57;60.25;102158.44;5013884;28;96706;-79
2021/11/24 01:07:50;;;;;;;25.40;15.52;;;;;;;12.53;60.35;102153.25;5013406;28;98577;-78
2021/11/24 01:10:16;;;;;;;29.70;14.90;;;;;;;12.50;61.08;102158.63;5012658;28;100718;-79
2021/11/24 01:12:44;;;;;;;28.35;14.27;;;;;;;12.70;60.07;102156.41;5013182;28;98948;-79
2021/11/24 01:15:12;;;;;;;29.27;14.82;;;;;;;12.47;60.13;102148.09;5015599;28;96982;-79
2021/11/24 01:17:39;;;;;;;32.10;14.80;;;;;;;12.61;60.26;102146.88;5016581;28;96683;-79
2021/11/24 01:20:06;;;;;;;26.23;14.50;;;;;;;12.42;60.93;102153.47;5016228;28;100781;-79
2021/11/24 01:22:34;;;;;;;27.83;14.48;;;;;;;12.28;61.80;102148.44;5013778;28;99207;-79
2021/11/24 01:25:01;;;;;;;28.15;14.88;;;;;;;12.56;60.77;102156.69;5011537;28;97204;-79
2021/11/24 01:27:29;;;;;;;28.20;14.90;;;;;;;12.59;60.29;102153.13;5013838;28;96854;-79
2021/11/24 01:29:55;;;;;;;29.65;13.63;;;;;;;12.72;59.88;102154.59;5013805;28;98293;-79
2021/11/24 01:32:22;;;;;;;27.05;13.73;;;;;;;12.56;60.44;102150.53;5016108;28;99123;-80
2021/11/24 01:34:48;;;;;;;26.40;13.75;;;;;;;12.68;59.91;102163.50;5016542;28;97381;-80
2021/11/24 01:37:15;;;;;;;29.25;14.52;;;;;;;12.70;59.73;102157.28;5016303;28;96793;-80
2021/11/24 01:39:43;;;;;;;27.92;14.18;;;;;;;12.49;60.37;102149.78;5012677;28;99041;-79
2021/11/24 01:42:10;;;;;;;26.35;14.52;;;;;;;12.62;60.38;102153.03;5018749;28;99424;-80
2021/11/24 01:44:37;;;;;;;24.60;13.82;;;;;;;12.47;60.38;102150.75;5015455;28;96802;-78
2021/11/24 01:47:05;;;;;;;27.95;13.52;;;;;;;12.07;62.66;102154.19;5015572;28;97011;-79
2021/11/24 01:49:32;;;;;;;24.10;13.52;;;;;;;12.59;60.87;102150.47;5014536;28;98923;-79
2021/11/24 01:52:00;;;;;;;24.90;14.43;;;;;;;12.54;60.93;102149.69;5016903;28;98847;-79
2021/11/24 01:54:28;;;;;;;24.45;14.00;;;;;;;12.54;60.46;102141.72;5016239;28;96999;-80
2021/11/24 01:56:57;;;;;;;23.88;13.30;;;;;;;12.52;60.52;102139.13;5013827;28;97207;-79
2021/11/24 01:59:23;;;;;;;24.25;13.02;;;;;;;12.36;60.94;102138.56;5016540;28;99138;-79
2021/11/24 02:01:50;;;;;;;24.30;12.40;;;;;;;12.32;60.67;102139.53;5020793;28;98917;-79
2021/11/24 02:04:17;;;;;;;28.63;13.20;;;;;;;12.65;60.36;102139.72;5017078;28;96793;-79
2021/11/24 02:06:44;;;;;;;26.33;12.35;;;;;;;12.59;59.91;102131.91;5017697;28;96857;-79
2021/11/24 02:09:12;;;;;;;24.40;12.25;;;;;;;12.48;60.74;102132.13;5018813;28;98904;-80
2021/11/24 02:11:40;;;;;;;25.30;12.65;;;;;;;12.69;59.77;102136.09;5024465;28;97742;-78
2021/11/24 02:14:09;;;;;;;24.25;12.70;;;;;;;12.59;59.99;102129.25;5025248;28;96477;-78
2021/11/24 02:16:41;;;;;;;22.35;12.50;;;;;;;12.76;59.43;102124.44;5027184;28;96961;-78
2021/11/24 02:19:07;;;;;;;23.73;11.68;;;;;;;12.83;59.44;102125.19;5028019;28;99471;-78
2021/11/24 02:21:36;;;;;;;23.20;11.57;;;;;;;12.83;59.02;102120.75;5029767;28;97738;-78
2021/11/24 02:24:03;;;;;;;25.33;12.18;;;;;;;13.02;58.71;102123.84;5026357;28;96995;-77
2021/11/24 02:26:29;;;;;;;25.35;12.15;;;;;;;12.48;58.67;102125.94;5013946;28;96881;-78
2021/11/24 02:28:56;;;;;;;20.52;11.55;;;;;;;12.42;60.58;102120.78;5025096;28;97015;-79
2021/11/24 02:31:24;;;;;;;24.08;12.23;;;;;;;12.68;59.49;102132.56;5026365;28;99587;-79
2021/11/24 02:33:52;;;;;;;26.13;11.82;;;;;;;12.83;59.13;102114.56;5030764;28;99546;-79
2021/11/24 02:36:19;;;;;;;21.90;10.82;;;;;;;12.58;59.74;102115.13;5027658;28;96871;-78
2021/11/24 02:38:47;;;;;;;22.73;11.13;;;;;;;12.66;59.56;102117.63;5024100;28;99010;-78
2021/11/24 02:41:14;;;;;;;22.00;11.32;;;;;;;12.15;60.86;102115.16;5015981;28;97114;-79
2021/11/24 02:43:41;;;;;;;21.67;11.18;;;;;;;12.52;60.49;102119.69;5015327;28;98872;-79
2021/11/24 02:46:07;;;;;;;21.17;12.15;;;;;;;12.64;59.75;102109.69;5017113;28;96832;-80
2021/11/24 02:48:34;;;;;;;21.20;11.70;;;;;;;12.84;59.11;102108.34;5014588;28;97290;-79
2021/11/24 02:51:01;;;;;;;19.48;11.23;;;;;;;12.60;60.02;102096.53;5014786;28;96943;-79
2021/11/24 02:53:28;;;;;;;25.48;11.57;;;;;;;12.59;59.89;102113.34;5014451;28;96785;-79
2021/11/24 02:55:56;;;;;;;21.92;11.00;;;;;;;12.49;60.03;102114.44;5015402;28;96840;-79
2021/11/24 02:58:23;;;;;;;22.60;10.98;;;;;;;12.52;59.99;102106.44;5013965;28;99127;-80
2021/11/24 03:00:54;;;;;;;22.48;11.50;;;;;;;12.63;59.80;102099.09;5011327;28;100673;-79
2021/11/24 03:03:21;;;;;;;21.75;10.68;;;;;;;12.54;60.15;102101.94;5014360;28;96796;-79
2021/11/24 03:05:48;;;;;;;18.63;9.75;;;;;;;12.70;59.24;102095.41;5015224;28;96811;-78
2021/11/24 03:08:15;;;;;;;20.63;10.52;;;;;;;12.61;59.49;102098.25;5015727;28;98883;-78
2021/11/24 03:10:41;;;;;;;19.25;10.20;;;;;;;12.19;60.84;102098.31;5015704;28;99149;-79
2021/11/24 03:13:09;;;;;;;21.80;10.50;;;;;;;12.52;60.28;102095.84;5014795;28;96761;-79
2021/11/24 03:15:36;;;;;;;21.25;10.48;;;;;;;12.58;59.49;102087.75;5007652;28;97284;-79
2021/11/24 03:18:02;;;;;;;20.52;10.38;;;;;;;12.56;59.48;102089.53;5012282;28;98938;-78
2021/11/24 03:20:29;;;;;;;17.33;9.57;;;;;;;12.10;61.37;102093.19;5014312;28;97816;-78
2021/11/24 03:22:57;;;;;;;20.50;10.23;;;;;;;12.49;60.63;102093.22;5016895;28;97123;-78
2021/11/24 03:25:25;;;;;;;19.42;10.20;;;;;;;12.44;60.53;102095.13;5019740;28;96595;-78
2021/11/24 03:27:51;;;;;;;21.70;9.68;;;;;;;12.45;60.34;102087.13;5023684;28;102006;-78
2021/11/24 03:30:22;;;;;;;16.83;9.90;;;;;;;12.37;60.13;102089.06;5020192;28;98904;-79
2021/11/24 03:32:49;;;;;;;18.77;10.10;;;;;;;12.19;61.33;102089.47;5014970;28;97374;-79
2021/11/24 03:35:17;;;;;;;19.40;9.73;;;;;;;12.42;60.22;102081.88;5016883;28;96839;-79
2021/11/24 03:37:45;;;;;;;19.45;10.40;;;;;;;12.42;60.34;102083.66;5014452;28;99399;-80
2021/11/24 03:40:14;;;;;;;15.00;9.90;;;;;;;12.73;59.78;102085.59;5014739;28;97687;-79
2021/11/24 03:42:44;;;;;;;22.73;10.27;;;;;;;12.70;59.45;102077.72;5014520;28;96650;-79
2021/11/24 03:45:11;;;;;;;17.73;9.30;;;;;;;12.46;59.42;102077.41;5016908;28;98031;-79
2021/11/24 03:47:39;;;;;;;20.33;10.90;;;;;;;12.64;59.44;102079.63;5021181;28;99294;-79
2021/11/24 03:50:07;;;;;;;19.88;10.20;;;;;;;12.61;59.63;102072.63;5013099;28;99446;-79
2021/11/24 03:52:33;;;;;;;23.13;10.38;;;;;;;12.62;60.03;102070.84;5000789;28;97245;-79
2021/11/24 03:55:00;;;;;;;16.48;10.30;;;;;;;12.58;60.13;102071.81;5013424;28;97336;-79
2021/11/24 03:57:26;;;;;;;16.70;9.77;;;;;;;12.60;59.97;102072.69;5014087;28;99445;-78
2021/11/24 03:59:53;;;;;;;17.60;9.77;;;;;;;12.52;60.09;102069.31;5016598;28;99184;-79
2021/11/24 04:02:19;;;;;;;17.23;9.68;;;;;;;12.74;59.44;102066.13;5016222;28;96667;-80
2021/11/24 04:04:47;;;;;;;23.42;11.07;;;;;;;12.18;61.22;102069.19;5012139;28;96998;-79
2021/11/24 04:07:14;;;;;;;20.90;10.85;;;;;;;12.02;61.44;102058.00;5009607;28;99437;-80
2021/11/24 04:09:40;;;;;;;20.45;11.63;;;;;;;12.08;60.99;102063.19;5012119;28;99416;-79
2021/11/24 04:12:08;;;;;;;17.33;9.88;;;;;;;12.10;60.82;102064.03;5013498;28;97044;-79
2021/11/24 04:14:34;;;;;;;20.75;10.70;;;;;;;12.28;61.41;102063.63;5011577;28;96764;-79
2021/11/24 04:17:01;;;;;;;17.15;9.43;;;;;;;12.51;60.06;102062.25;5013600;28;98928;-79
2021/11/24 04:19:27;;;;;;;18.40;10.73;;;;;;;12.23;60.61;102062.88;5014037;28;101940;-79
2021/11/24 04:21:55;;;;;;;22.73;10.43;;;;;;;12.33;60.57;102064.44;5014785;28;97161;-79
2021/11/24 04:24:22;;;;;;;19.55;9.82;;;;;;;12.53;59.91;102069.28;5014391;28;97348;-79
2021/11/24 04:26:48;;;;;;;20.17;10.18;;;;;;;12.51;60.14;102063.13;5012872;28;97719;-78
2021/11/24 04:29:14;;;;;;;19.08;10.65;;;;;;;12.43;59.96;102067.72;5012969;28;98916;-79
2021/11/24 04:31:41;;;;;;;22.00;9.60;;;;;;;12.00;61.14;102073.09;5013698;28;96848;-80
2021/11/24 04:34:07;;;;;;;17.58;9.82;;;;;;;12.51;60.59;102076.41;5011804;28;96950;-79
2021/11/24 04:36:34;;;;;;;18.60;10.60;;;;;;;12.57;60.09;102075.38;5013056;28;98876;-79
2021/11/24 04:39:02;;;;;;;18.48;10.25;;;;;;;12.64;59.43;102074.34;5011516;28;99038;-79
2021/11/24 04:41:28;;;;;;;18.38;9.90;;;;;;;12.76;59.16;102071.41;5013734;28;97292;-78
2021/11/24 04:43:54;;;;;;;14.63;9.20;;;;;;;12.17;60.39;102065.66;5011844;28;97157;-78
2021/11/24 04:46:21;;;;;;;21.95;10.23;;;;;;;11.68;62.02;102065.75;5013375;28;99351;-79
2021/11/24 04:48:47;;;;;;;17.85;9.60;;;;;;;12.08;62.08;102065.00;5011287;28;98869;-80
2021/11/24 04:51:14;;;;;;;18.10;10.30;;;;;;;12.36;60.81;102074.94;5013609;28;96995;-79
2021/11/24 04:53:40;;;;;;;16.23;8.77;;;;;;;12.36;60.24;102074.94;5012958;28;96865;-79
2021/11/24 04:56:08;;;;;;;16.58;9.15;;;;;;;12.49;60.35;102078.19;5012686;28;98862;-79
2021/11/24 04:58:42;;;;;;;18.48;8.98;;;;;;;12.58;60.06;102069.19;5012421;28;97536;-78
2021/11/24 05:01:08;;;;;;;14.32;9.10;;;;;;;12.76;59.62;102066.09;5014652;28;97247;-79
2021/11/24 05:03:35;;;;;;;17.77;10.18;;;;;;;12.72;59.67;102070.59;5006282;28;98024;-80
2021/11/24 05:06:02;;;;;;;18.90;9.63;;;;;;;12.75;60.16;102069.66;5013589;28;99759;-79
2021/11/24 05:08:29;;;;;;;18.00;9.88;;;;;;;12.74;59.60;102068.78;5012478;28;99453;-78
2021/11/24 05:10:55;;;;;;;20.40;10.93;;;;;;;12.53;60.34;102063.13;5013658;28;96923;-79
2021/11/24 05:13:23;;;;;;;16.05;10.50;;;;;;;12.04;60.46;102068.59;5012200;28;98098;-79
2021/11/24 05:15:53;;;;;;;17.95;10.00;;;;;;;12.13;61.95;102069.28;5006801;28;99020;-78
2021/11/24 05:18:25;;;;;;;20.38;10.27;;;;;;;12.42;60.87;102054.50;5011760;28;98860;-79
2021/11/24 05:20:51;;;;;;;18.13;9.40;;;;;;;12.39;60.47;102055.47;5011859;28;96868;-80
2021/11/24 05:23:18;;;;;;;16.98;9.35;;;;;;;12.65;60.03;102062.81;5011847;28;97275;-78
2021/11/24 05:25:44;;;;;;;17.98;9.10;;;;;;;12.61;59.81;102058.47;5013252;28;100882;-79
2021/11/24 05:28:11;;;;;;;19.42;9.73;;;;;;;12.42;60.09;102054.50;5012465;28;99274;-80
2021/11/24 05:30:39;;;;;;;20.42;10.13;;;;;;;12.29;59.26;102059.22;5013516;28;96822;-80
2021/11/24 05:33:05;;;;;;;17.55;8.90;;;;;;;12.31;60.51;102062.72;5012554;28;98195;-79
2021/11/24 05:35:32;;;;;;;17.35;10.10;;;;;;;12.43;60.46;102058.91;5013816;28;98946;-79
2021/11/24 05:37:59;;;;;;;23.80;10.80;;;;;;;12.40;60.54;102057.22;5013692;28;99290;-80
2021/11/24 05:40:26;;;;;;;15.30;9.82;;;;;;;12.53;60.08;102058.69;5012166;28;98557;-81
2021/11/24 05:42:52;;;;;;;19.98;10.02;;;;;;;12.70;59.61;102058.28;5011788;28;97478;-80
2021/11/24 05:45:27;;;;;;;22.25;10.48;;;;;;;12.52;60.18;102053.41;5012046;28;100998;-80
2021/11/24 05:47:58;;;;;;;20.80;9.63;;;;;;;12.43;60.52;102051.81;5012270;28;99810;-82
2021/11/24 05:50:26;;;;;;;17.08;10.10;;;;;;;12.19;61.02;102050.59;5012845;28;97802;-80
2021/11/24 05:52:53;;;;;;;16.15;10.13;;;;;;;12.58;59.80;102051.50;5011986;28;98429;-82
2021/11/24 05:55:20;;;;;;;17.20;10.38;;;;;;;12.46;60.03;102051.78;5008680;28;98947;-79
2021/11/24 05:57:47;;;;;;;19.00;10.15;;;;;;;11.33;61.60;102058.44;5002524;28;99280;-80
2021/11/24 06:00:14;;;;;;;21.27;13.45;;;;;;;11.80;62.96;102054.06;5013759;28;96799;-79
2021/11/24 06:02:41;;;;;;;19.05;10.05;;;;;;;12.01;60.74;102058.06;5015540;28;97471;-79
2021/11/24 06:05:10;;;;;;;19.60;10.25;;;;;;;12.18;61.28;102053.28;5014234;28;101608;-80
2021/11/24 06:07:37;;;;;;;16.83;10.32;;;;;;;12.17;61.10;102048.88;5015179;28;99205;-80
2021/11/24 06:10:04;;;;;;;18.77;11.25;;;;;;;12.21;60.45;102045.25;5014289;28;97144;-80
2021/11/24 06:12:31;;;;;;;20.00;11.48;;;;;;;12.47;60.25;102040.22;5016136;28;97135;-81
2021/11/24 06:14:58;;;;;;;37.40;18.52;;;;;;;12.46;60.38;102045.59;5014948;28;100661;-79
2021/11/24 06:17:24;;;;;;;21.33;10.45;;;;;;;12.57;59.87;102046.22;5016630;28;98882;-81
2021/11/24 06:19:51;;;;;;;20.00;10.95;;;;;;;12.50;59.89;102047.25;5014950;28;96751;-80
2021/11/24 06:22:19;;;;;;;19.63;10.55;;;;;;;12.62;59.88;102047.84;5015934;28;96845;-79
2021/11/24 06:24:45;;;;;;;18.55;10.80;;;;;;;12.69;59.13;102043.28;5009256;28;100167;-80
2021/11/24 06:27:12;;;;;;;17.92;9.93;;;;;;;12.73;59.38;102042.31;5013088;28;98026;-79
2021/11/24 06:29:38;;;;;;;21.42;10.63;;;;;;;12.55;59.41;102048.03;5012266;28;96915;-79
2021/11/24 06:32:05;;;;;;;20.20;11.10;;;;;;;12.47;59.45;102042.88;5013202;28;96892;-80
2021/11/24 06:34:32;;;;;;;16.95;9.65;;;;;;;11.96;61.92;102034.31;5013243;28;99008;-79
2021/11/24 06:36:58;;;;;;;19.25;11.13;;;;;;;12.46;60.27;102035.00;5017746;28;98419;-79
2021/11/24 06:39:28;;;;;;;20.63;11.20;;;;;;;12.73;59.55;102040.50;5015158;28;96950;-78
2021/11/24 06:41:55;;;;;;;19.48;11.45;;;;;;;12.66;59.38;102046.00;5014308;28;97033;-78
2021/11/24 06:44:22;;;;;;;17.90;10.30;;;;;;;12.39;60.48;102042.22;5019155;28;99478;-81
2021/11/24 06:46:49;;;;;;;40.05;19.40;;;;;;;12.83;59.47;102050.91;5015094;28;97617;-80
2021/11/24 06:49:15;;;;;;;21.80;11.85;;;;;;;12.37;60.39;102047.53;5012630;28;96914;-80
2021/11/24 06:51:42;;;;;;;20.23;11.20;;;;;;;12.57;59.74;102052.41;5014844;28;96940;-79
2021/11/24 06:54:16;;;;;;;16.60;10.18;;;;;;;12.69;59.18;102049.44;5006505;28;97804;-81
2021/11/24 06:56:44;;;;;;;22.90;10.93;;;;;;;12.57;59.45;102054.16;5005940;28;97725;-80
2021/11/24 06:59:10;;;;;;;17.63;11.48;;;;;;;12.72;59.08;102049.41;5003069;28;97081;-80
2021/11/24 07:01:37;;;;;;;24.48;11.23;;;;;;;12.66;59.10;102051.31;5007182;28;99851;-80
2021/11/24 07:04:04;;;;;;;19.75;11.00;;;;;;;12.70;58.86;102050.31;5008251;28;98322;-79
2021/11/24 07:06:30;;;;;;;19.05;11.15;;;;;;;12.54;59.58;102054.22;5007178;28;98967;-79
2021/11/24 07:08:57;;;;;;;20.92;10.90;;;;;;;12.60;59.09;102051.47;5007311;28;96925;-81
2021/11/24 07:11:28;;;;;;;16.60;10.45;;;;;;;12.54;59.60;102052.44;5011769;28;97106;-81
2021/11/24 07:13:56;;;;;;;19.02;10.90;;;;;;;12.64;59.00;102055.78;5012381;28;99122;-80
2021/11/24 07:16:22;;;;;;;15.35;9.80;;;;;;;12.59;59.03;102050.59;5003537;28;96823;-81
2021/11/24 07:18:49;;;;;;;19.38;10.88;;;;;;;12.73;58.64;102063.53;4992986;28;97386;-80
2021/11/24 07:21:16;;;;;;;17.40;10.95;;;;;;;12.29;59.75;102068.03;4991431;28;97153;-80
2021/11/24 07:23:42;;;;;;;18.05;10.65;;;;;;;12.51;59.25;102067.56;5002295;28;97355;-81
2021/11/24 07:26:09;;;;;;;17.98;11.52;;;;;;;12.65;58.85;102062.81;4998045;28;98806;-81
2021/11/24 07:28:35;;;;;;;18.17;11.18;;;;;;;12.72;58.82;102070.59;5000836;28;97435;-80
2021/11/24 07:31:03;;;;;;;15.13;9.65;;;;;;;12.76;58.45;102066.97;5002376;28;96905;-80
2021/11/24 07:33:30;;;;;;;23.35;10.35;;;;;;;12.62;58.42;102070.84;4996818;28;99289;-79
2021/11/24 07:36:03;;;;;;;16.88;10.32;;;;;;;12.67;59.06;102066.28;4998620;28;98600;-81
2021/11/24 07:38:30;;;;;;;17.33;10.05;;;;;;;12.71;58.66;102075.94;5000872;28;96867;-80
2021/11/24 07:40:58;;;;;;;18.23;10.82;;;;;;;12.83;58.51;102067.69;5006385;28;98641;-82
2021/11/24 07:43:27;;;;;;;21.15;11.90;;;;;;;12.65;58.46;102070.78;5014513;28;102086;-81
2021/11/24 07:45:54;;;;;;;17.17;11.07;;;;;;;12.73;58.45;102058.22;5013263;28;98854;-82
2021/11/24 07:48:24;;;;;;;24.95;13.10;;;;;;;12.79;58.38;102063.38;5012971;28;98598;-79
2021/11/24 07:50:51;;;;;;;19.80;11.65;;;;;;;12.72;58.55;102056.47;5030600;28;99032;-81
2021/11/24 07:53:19;;;;;;;20.75;11.73;;;;;;;12.80;58.64;102059.78;5030898;28;98458;-81
2021/11/24 07:55:46;;;;;;;18.00;11.77;;;;;;;12.83;57.83;102058.84;5015036;28;100273;-80
2021/11/24 07:58:14;;;;;;;18.33;11.10;;;;;;;12.77;58.64;102057.22;5022739;28;96829;-80
2021/11/24 08:00:41;;;;;;;21.33;11.35;;;;;;;12.85;58.58;102049.09;5036935;28;96940;-80
2021/11/24 08:03:08;;;;;;;19.90;11.40;;;;;;;12.99;58.05;102045.19;5037478;27;101983;-82
2021/11/24 08:05:36;;;;;;;20.17;11.73;;;;;;;13.15;57.79;102043.03;5031566;28;100281;-80
2021/11/24 08:08:03;;;;;;;17.77;11.05;;;;;;;12.83;57.00;102040.28;5031077;28;98176;-81
2021/11/24 08:10:30;;;;;;;20.05;12.10;;;;;;;12.35;59.92;102043.16;5036568;27;96826;-81
2021/11/24 08:13:05;;;;;;;20.38;11.15;;;;;;;12.63;58.65;102043.41;5034830;28;100434;-81
2021/11/24 08:15:39;;;;;;;25.38;11.55;;;;;;;12.94;57.70;102048.84;5029004;28;99077;-81
2021/11/24 08:18:10;;;;;;;20.10;10.63;;;;;;;12.87;57.88;102042.81;5031256;28;96718;-82
2021/11/24 08:20:39;;;;;;;20.77;12.93;;;;;;;12.96;57.32;102042.59;5035672;28;96750;-82
2021/11/24 08:23:06;;;;;;;20.05;11.25;;;;;;;12.54;58.34;102041.84;5032213;28;97985;-81
2021/11/24 08:25:33;;;;;;;19.90;11.43;;;;;;;12.52;59.52;102042.81;5034042;28;97058;-81
2021/11/24 08:28:02;;;;;;;19.15;11.63;;;;;;;12.82;58.23;102044.72;5028796;28;96729;-82
2021/11/24 08:30:29;;;;;;;22.98;11.93;;;;;;;12.63;59.08;102048.72;5046456;28;96922;-80
2021/11/24 08:32:57;;;;;;;21.63;11.57;;;;;;;12.82;58.24;102036.75;5023723;28;97869;-82
2021/11/24 08:35:25;;;;;;;19.40;11.65;;;;;;;13.16;57.19;102029.75;5035541;27;99167;-82
2021/11/24 08:37:57;;;;;;;19.50;11.48;;;;;;;13.33;56.72;102036.38;5024230;28;96643;-82
2021/11/24 08:40:24;;;;;;;18.70;11.18;;;;;;;13.32;56.55;102039.97;5033805;28;96647;-83
2021/11/24 08:42:52;;;;;;;20.98;11.35;;;;;;;13.33;56.49;102031.06;5034177;28;101236;-82
2021/11/24 08:45:19;;;;;;;22.15;12.05;;;;;;;13.33;56.59;102031.06;5034634;28;99109;-82
2021/11/24 08:47:50;;;;;;;19.48;11.65;;;;;;;13.30;56.37;102025.84;5043702;27;96754;-82
2021/11/24 08:50:19;;;;;;;18.67;9.68;;;;;;;13.37;56.20;102030.09;5030129;28;96796;-83
2021/11/24 08:52:48;;;;;;;18.00;11.15;;;;;;;13.27;56.90;102029.44;5031178;28;98922;-83
2021/11/24 08:55:18;;;;;;;19.33;11.60;;;;;;;13.16;56.95;102032.41;5030854;28;100886;-84
2021/11/24 08:57:46;;;;;;;20.13;11.45;;;;;;;12.81;58.66;102037.66;5022546;28;96985;-82
2021/11/24 09:00:15;;;;;;;16.48;10.55;;;;;;;13.22;57.56;102034.00;5033124;28;96820;-83
2021/11/24 09:02:44;;;;;;;24.90;11.43;;;;;;;13.06;57.38;102035.31;5025833;28;97770;-81
2021/11/24 09:05:13;;;;;;;16.17;10.18;;;;;;;13.00;57.64;102032.78;5031894;28;101369;-82
2021/11/24 09:07:40;;;;;;;20.15;11.43;;;;;;;13.07;57.83;102037.03;5019227;28;96764;-80
2021/11/24 09:10:09;;;;;;;19.35;8.95;;;;;;;12.96;57.82;102032.00;5034655;28;96525;-80
2021/11/24 09:12:37;;;;;;;20.85;9.68;;;;;;;12.87;58.19;102032.22;5044341;28;98323;-81
2021/11/24 09:15:05;;;;;;;18.40;10.70;;;;;;;13.07;57.57;102026.41;5034096;27;100870;-81
2021/11/24 09:17:33;;;;;;;15.45;9.77;;;;;;;13.33;57.40;102033.72;5024199;28;97200;-82
2021/11/24 09:19:59;;;;;;;21.88;9.90;;;;;;;13.43;56.92;102033.44;5034615;28;96625;-81
2021/11/24 09:22:26;;;;;;;16.55;9.55;;;;;;;13.50;56.45;102034.16;5035872;28;99403;-81
2021/11/24 09:24:56;;;;;;;18.77;10.32;;;;;;;13.54;56.55;102028.72;5028659;28;101073;-81
2021/11/24 09:27:30;;;;;;;15.07;10.15;;;;;;;13.54;56.66;102030.50;5029930;28;97764;-81
2021/11/24 09:30:01;;;;;;;15.50;10.45;;;;;;;13.66;55.78;102026.63;5022466;28;96636;-81
2021/11/24 09:32:29;;;;;;;18.88;10.93;;;;;;;13.32;56.56;102024.03;5033300;28;98894;-81
2021/11/24 09:34:57;;;;;;;25.35;12.15;;;;;;;13.51;56.34;102030.59;5032326;28;98769;-82
2021/11/24 09:37:24;;;;;;;19.25;11.98;;;;;;;13.45;56.05;102021.03;5041209;28;96647;-81
2021/11/24 09:39:51;;;;;;;21.60;10.68;;;;;;;13.48;56.18;102025.34;5037529;28;96812;-81
2021/11/24 09:42:23;;;;;;;14.82;8.95;;;;;;;13.55;55.67;102021.63;5037775;28;101037;-81
2021/11/24 09:44:50;;;;;;;16.40;9.38;;;;;;;13.57;56.03;102014.50;5025661;28;100269;-81
2021/11/24 09:47:20;;;;;;;17.00;10.43;;;;;;;13.52;56.35;102019.06;5038188;28;99150;-80
2021/11/24 09:49:56;;;;;;;17.27;10.05;;;;;;;13.46;55.49;102019.19;5028651;28;96715;-83
2021/11/24 09:52:25;;;;;;;20.30;10.98;;;;;;;13.55;55.87;102011.88;5029442;28;98811;-81
2021/11/24 09:54:52;;;;;;;16.65;10.43;;;;;;;13.64;55.78;102012.53;5036564;28;98075;-80
2021/11/24 09:57:20;;;;;;;19.13;10.65;;;;;;;13.50;56.01;102007.59;5023674;27;97343;-81
2021/11/24 09:59:48;;;;;;;17.67;10.25;;;;;;;13.11;57.53;102002.44;5034107;28;96704;-82
2021/11/24 10:02:16;;;;;;;16.50;10.48;;;;;;;13.07;57.78;102003.41;5032474;28;99587;-81
2021/11/24 10:04:47;;;;;;;18.20;10.15;;;;;;;13.44;56.78;101998.03;5029381;28;100202;-81
2021/11/24 10:07:17;;;;;;;23.42;11.25;;;;;;;13.28;57.23;101996.69;5032811;28;97322;-81
2021/11/24 10:09:46;;;;;;;19.75;10.15;;;;;;;13.66;56.27;102000.94;5042744;28;96881;-81
2021/11/24 10:12:14;;;;;;;17.25;10.52;;;;;;;13.41;56.41;101998.09;5026522;28;99852;-81
2021/11/24 10:14:43;;;;;;;16.65;10.40;;;;;;;13.63;55.60;102001.03;5031036;28;98246;-81
2021/11/24 10:17:12;;;;;;;18.05;10.30;;;;;;;13.65;55.73;101995.69;5032983;28;97723;-80
2021/11/24 10:19:40;;;;;;;22.00;10.63;;;;;;;13.59;55.31;101985.25;5037217;28;97103;-81
2021/11/24 10:22:10;;;;;;;17.10;9.77;;;;;;;13.69;55.17;101992.03;5030977;28;100538;-80
2021/11/24 10:24:42;;;;;;;19.88;10.25;;;;;;;13.91;54.98;101978.06;5024986;28;97839;-81
2021/11/24 10:27:11;;;;;;;18.30;10.43;;;;;;;13.90;55.09;101986.09;5020111;28;97202;-79
2021/11/24 10:29:40;;;;;;;19.38;9.82;;;;;;;14.02;54.39;101968.91;5031502;28;96863;-81
2021/11/24 10:32:09;;;;;;;19.67;10.30;;;;;;;14.06;54.11;101975.84;5028909;28;99742;-81
2021/11/24 10:34:38;;;;;;;42.63;11.80;;;;;;;14.16;54.07;101958.72;5035092;28;97824;-80
2021/11/24 10:37:09;;;;;;;19.85;10.35;;;;;;;14.24;53.85;101967.34;5032589;28;96967;-81
2021/11/24 10:39:43;;;;;;;22.40;11.30;;;;;;;14.40;53.67;101954.44;5029903;28;96801;-80
2021/11/24 10:42:13;;;;;;;16.73;10.43;;;;;;;14.24;53.55;101959.34;5029518;28;99628;-81
2021/11/24 10:44:44;;;;;;;15.55;10.13;;;;;;;14.32;53.84;101938.69;5032220;28;99431;-81
2021/11/24 10:47:13;;;;;;;22.10;10.32;;;;;;;14.23;53.57;101944.31;5032686;28;96755;-80
2021/11/24 10:49:49;;;;;;;15.70;9.05;;;;;;;14.26;53.40;101938.88;5035012;28;96930;-81
2021/11/24 10:52:34;;;;;;;16.17;9.40;;;;;;;14.02;53.39;101942.31;5033358;28;99044;-81
2021/11/24 10:55:06;;;;;;;24.05;11.05;;;;;;;14.25;53.69;101939.81;5033217;28;98616;-81
2021/11/24 10:57:37;;;;;;;17.55;9.98;;;;;;;14.23;53.29;101936.34;5036745;28;96618;-81
2021/11/24 11:00:22;;;;;;;20.42;9.27;;;;;;;14.27;53.21;101937.97;5033041;28;96985;-80
2021/11/24 11:03:03;;;;;;;17.85;9.00;;;;;;;14.20;53.22;101937.31;5034142;28;96741;-81
2021/11/24 11:05:34;;;;;;;17.42;9.57;;;;;;;14.26;52.89;101939.75;5029043;28;96922;-80
2021/11/24 11:08:06;;;;;;;17.23;9.38;;;;;;;14.09;53.90;101935.91;5033281;28;96783;-81
2021/11/24 11:10:35;;;;;;;17.17;9.90;;;;;;;13.92;53.98;101931.97;5034364;28;96750;-81
2021/11/24 11:13:04;;;;;;;18.40;10.77;;;;;;;13.77;53.94;101929.78;5032609;28;98186;-82